Time;durP1;ratioP1;P1;durP2;ratioP2;P2;SDS_P1;SDS_P2;PMS_P1;PMS_P2;Temp;Humidity;BMP_temperature;BMP_pressure;BME280_temperature;BME280_humidity;BME280_pressure;Samples;Min_cycle;Max_cycle;Signal;HPM_P1;HPM_P2
2021/06/03 00:01:00;;;;;;;3.60;2.00;;;17.10;86.30;;;;;;4974654;28;20031;-71
2021/06/03 00:03:27;;;;;;;4.07;2.30;;;17.10;86.20;;;;;;4975887;28;20046;-71
2021/06/03 00:05:59;;;;;;;3.67;2.30;;;17.00;86.70;;;;;;4985717;28;20412;-71
2021/06/03 00:08:27;;;;;;;3.83;2.25;;;17.00;87.80;;;;;;4990616;28;20100;-71
2021/06/03 00:11:11;;;;;;;5.00;2.38;;;17.00;89.00;;;;;;4974421;28;20101;-71
2021/06/03 00:13:37;;;;;;;4.65;2.30;;;17.00;90.60;;;;;;4975335;28;20337;-71
2021/06/03 00:16:08;;;;;;;3.67;2.47;;;17.00;89.30;;;;;;4975160;28;20026;-71
2021/06/03 00:18:36;;;;;;;3.13;1.60;;;16.90;91.20;;;;;;4977885;28;20352;-71
2021/06/03 00:21:02;;;;;;;4.00;2.40;;;16.90;89.90;;;;;;4985372;28;20973;-71
2021/06/03 00:23:28;;;;;;;4.20;2.40;;;16.90;90.70;;;;;;4985263;28;20043;-71
2021/06/03 00:25:58;;;;;;;5.93;2.58;;;16.80;91.10;;;;;;4982061;28;21942;-71
2021/06/03 00:28:26;;;;;;;4.18;2.28;;;16.80;90.90;;;;;;4975287;28;20065;-71
2021/06/03 00:30:54;;;;;;;3.88;2.20;;;16.70;90.90;;;;;;4974773;28;20045;-71
2021/06/03 00:33:20;;;;;;;3.55;2.40;;;16.70;91.50;;;;;;4975035;28;20030;-71
2021/06/03 00:35:45;;;;;;;3.90;2.70;;;16.70;91.20;;;;;;4975392;28;20478;-71
2021/06/03 00:38:14;;;;;;;3.85;2.40;;;16.70;91.80;;;;;;4975431;28;20483;-71
2021/06/03 00:40:39;;;;;;;3.88;2.20;;;16.70;92.00;;;;;;4990237;28;20499;-71
2021/06/03 00:43:09;;;;;;;2.95;1.98;;;16.60;92.10;;;;;;4993720;28;20041;-72
2021/06/03 00:45:39;;;;;;;3.80;2.55;;;16.60;91.90;;;;;;4991264;28;20112;-71
2021/06/03 00:48:07;;;;;;;4.10;2.20;;;16.50;93.10;;;;;;4981272;28;20109;-71
2021/06/03 00:50:36;;;;;;;4.15;2.40;;;16.50;92.50;;;;;;4992435;28;20031;-71
2021/06/03 00:53:03;;;;;;;3.65;2.22;;;16.40;92.50;;;;;;4992177;28;20026;-71
2021/06/03 00:55:31;;;;;;;4.40;2.60;;;16.40;92.70;;;;;;4992082;28;20027;-71
2021/06/03 00:57:57;;;;;;;5.53;2.53;;;16.30;94.60;;;;;;4996122;28;20936;-71
2021/06/03 01:00:25;;;;;;;4.70;2.50;;;16.30;95.20;;;;;;4980103;28;20035;-71
2021/06/03 01:02:51;;;;;;;3.95;2.33;;;16.30;95.90;;;;;;4981779;28;20088;-71
2021/06/03 01:05:22;;;;;;;4.78;2.47;;;16.20;95.70;;;;;;4991394;28;20535;-71
2021/06/03 01:07:51;;;;;;;4.35;2.60;;;16.10;95.00;;;;;;4981042;28;20101;-71
2021/06/03 01:10:26;;;;;;;3.90;2.50;;;16.10;97.30;;;;;;4980624;28;20042;-71
2021/06/03 01:13:03;;;;;;;4.30;2.50;;;16.10;95.90;;;;;;4992580;28;20456;-71
2021/06/03 01:15:29;;;;;;;4.40;2.50;;;16.00;96.90;;;;;;4992387;28;20058;-71
2021/06/03 01:17:55;;;;;;;4.85;2.72;;;16.00;97.30;;;;;;4993146;28;21999;-71
2021/06/03 01:20:21;;;;;;;5.03;2.40;;;16.00;99.10;;;;;;4992077;28;20516;-71
2021/06/03 01:22:55;;;;;;;3.83;2.35;;;15.90;97.70;;;;;;4990778;28;20092;-71
2021/06/03 01:25:22;;;;;;;3.78;2.42;;;16.00;97.10;;;;;;4999467;28;20361;-71
2021/06/03 01:27:48;;;;;;;4.68;2.60;;;15.90;99.90;;;;;;4994134;28;20391;-71
2021/06/03 01:30:27;;;;;;;4.07;2.35;;;15.80;99.90;;;;;;4975795;28;20031;-71
2021/06/03 01:33:05;;;;;;;4.53;2.40;;;15.80;97.90;;;;;;4991554;28;20027;-71
2021/06/03 01:35:36;;;;;;;3.80;2.22;;;15.80;99.80;;;;;;4981576;28;20082;-71
2021/06/03 01:38:05;;;;;;;4.15;2.47;;;15.80;98.00;;;;;;4986668;28;20041;-71
2021/06/03 01:40:31;;;;;;;5.43;2.65;;;15.70;99.90;;;;;;4984452;28;20039;-71
2021/06/03 01:42:57;;;;;;;4.15;2.55;;;15.70;99.90;;;;;;4979706;28;20366;-71
2021/06/03 01:45:27;;;;;;;6.20;2.90;;;15.70;99.90;;;;;;4980547;28;20049;-71
2021/06/03 01:47:58;;;;;;;5.15;2.65;;;15.60;99.90;;;;;;4976371;28;20708;-71
2021/06/03 01:50:23;;;;;;;4.70;2.55;;;15.60;99.90;;;;;;4992051;28;20049;-71
2021/06/03 01:52:49;;;;;;;4.70;2.67;;;15.60;99.90;;;;;;4982960;28;20031;-72
2021/06/03 01:55:17;;;;;;;4.65;2.70;;;15.60;99.90;;;;;;4995776;28;20030;-71
2021/06/03 01:57:45;;;;;;;4.90;2.75;;;15.60;99.90;;;;;;4976889;28;20179;-71
2021/06/03 02:00:15;;;;;;;3.95;2.50;;;15.50;99.90;;;;;;4992774;28;20033;-71
2021/06/03 02:02:41;;;;;;;5.60;2.53;;;15.50;99.90;;;;;;4978173;28;20148;-71
2021/06/03 02:05:07;;;;;;;5.05;2.45;;;15.50;99.90;;;;;;4987753;28;20035;-71
2021/06/03 02:07:36;;;;;;;4.72;2.78;;;15.40;99.90;;;;;;4980374;28;20042;-71
2021/06/03 02:10:05;;;;;;;4.32;2.60;;;15.40;99.90;;;;;;4987856;28;20042;-71
2021/06/03 02:12:34;;;;;;;4.60;2.67;;;15.50;99.90;;;;;;4992423;28;20062;-72
2021/06/03 02:15:05;;;;;;;5.75;2.63;;;15.50;99.90;;;;;;4988062;28;20954;-71
2021/06/03 02:17:33;;;;;;;3.90;2.53;;;15.50;99.90;;;;;;4976706;28;20041;-71
2021/06/03 02:20:07;;;;;;;5.22;2.60;;;15.60;99.90;;;;;;4972642;28;20563;-71
2021/06/03 02:22:32;;;;;;;3.80;2.50;;;15.60;99.90;;;;;;4992184;28;20034;-71
2021/06/03 02:25:03;;;;;;;4.53;2.65;;;15.60;99.90;;;;;;4971850;28;20880;-73
2021/06/03 02:27:31;;;;;;;3.95;2.60;;;15.60;99.90;;;;;;4979201;28;20030;-71
2021/06/03 02:29:56;;;;;;;3.90;2.55;;;15.60;99.90;;;;;;4979521;28;20353;-72
2021/06/03 02:32:22;;;;;;;4.20;2.45;;;15.60;99.90;;;;;;4977390;28;20043;-71
2021/06/03 02:34:53;;;;;;;3.72;2.40;;;15.50;99.90;;;;;;4983562;28;20121;-71
2021/06/03 02:37:21;;;;;;;3.95;2.47;;;15.50;99.90;;;;;;4987706;28;20053;-71
2021/06/03 02:39:48;;;;;;;4.38;2.65;;;15.50;99.90;;;;;;4977940;28;20050;-73
2021/06/03 02:42:17;;;;;;;4.18;2.50;;;15.50;99.90;;;;;;4983216;28;20637;-71
2021/06/03 02:44:43;;;;;;;4.18;2.50;;;15.50;99.90;;;;;;4964888;28;20035;-71
2021/06/03 02:47:11;;;;;;;4.65;2.50;;;15.50;99.90;;;;;;4992590;28;20037;-71
2021/06/03 02:49:39;;;;;;;5.38;2.67;;;15.50;99.90;;;;;;4982823;28;20043;-71
2021/06/03 02:52:08;;;;;;;4.32;2.67;;;15.50;99.90;;;;;;4979810;28;20045;-71
2021/06/03 02:54:33;;;;;;;4.60;2.70;;;15.50;99.90;;;;;;4977147;28;20026;-71
2021/06/03 02:56:59;;;;;;;4.10;2.70;;;15.50;99.90;;;;;;4977486;28;20038;-71
2021/06/03 02:59:29;;;;;;;4.07;2.55;;;15.50;99.90;;;;;;4976170;28;20042;-71
2021/06/03 03:01:55;;;;;;;5.18;2.60;;;15.40;99.90;;;;;;4983277;28;20058;-72
2021/06/03 03:04:23;;;;;;;5.22;2.60;;;15.40;99.90;;;;;;4976555;28;20098;-71
2021/06/03 03:06:48;;;;;;;5.57;2.78;;;15.40;99.90;;;;;;4975053;28;20041;-71
2021/06/03 03:09:16;;;;;;;5.90;2.65;;;15.40;99.90;;;;;;4991372;28;20034;-71
2021/06/03 03:11:44;;;;;;;5.45;2.70;;;15.40;99.90;;;;;;4986694;28;20486;-71
2021/06/03 03:14:12;;;;;;;5.32;2.72;;;15.30;99.90;;;;;;4976583;28;20030;-71
2021/06/03 03:16:42;;;;;;;4.18;2.58;;;15.30;99.90;;;;;;4980025;28;20441;-71
2021/06/03 03:19:10;;;;;;;6.22;2.90;;;15.30;99.90;;;;;;4976306;28;20034;-71
2021/06/03 03:21:36;;;;;;;5.13;2.78;;;15.30;99.90;;;;;;4977347;28;20041;-71
2021/06/03 03:24:02;;;;;;;5.88;2.70;;;15.20;99.90;;;;;;4987018;28;20038;-71
2021/06/03 03:26:27;;;;;;;4.38;2.78;;;15.20;99.90;;;;;;4975461;28;20022;-71
2021/06/03 03:28:53;;;;;;;4.85;2.85;;;15.20;99.90;;;;;;4989515;28;20033;-71
2021/06/03 03:31:21;;;;;;;4.93;2.67;;;15.20;99.90;;;;;;4994285;28;20030;-71
2021/06/03 03:33:47;;;;;;;5.40;2.50;;;15.20;99.90;;;;;;4999424;28;20096;-71
2021/06/03 03:36:14;;;;;;;5.22;2.70;;;15.20;99.90;;;;;;4970533;28;20397;-71
2021/06/03 03:38:42;;;;;;;6.25;2.70;;;15.20;99.90;;;;;;4986668;28;20031;-71
2021/06/03 03:41:08;;;;;;;5.53;2.85;;;15.20;99.90;;;;;;4975855;28;20034;-71
2021/06/03 03:43:36;;;;;;;4.40;2.58;;;15.20;99.90;;;;;;4975607;28;20082;-72
2021/06/03 03:46:01;;;;;;;4.05;2.38;;;15.20;99.90;;;;;;4975706;28;20039;-71
2021/06/03 03:48:27;;;;;;;4.15;2.40;;;15.30;99.90;;;;;;4976588;28;20026;-71
2021/06/03 03:50:55;;;;;;;4.30;2.58;;;15.20;99.90;;;;;;4975721;28;20123;-71
2021/06/03 03:53:21;;;;;;;5.70;2.75;;;15.20;99.90;;;;;;4976589;28;20038;-72
2021/06/03 03:55:47;;;;;;;5.25;2.58;;;15.20;99.90;;;;;;4975545;28;20031;-71
2021/06/03 03:58:12;;;;;;;3.92;2.60;;;15.20;99.90;;;;;;4974977;28;20026;-71
2021/06/03 04:00:40;;;;;;;4.00;2.50;;;15.20;99.90;;;;;;4976321;28;20107;-71
2021/06/03 04:03:06;;;;;;;4.40;2.53;;;15.30;99.90;;;;;;4975668;28;20050;-72
2021/06/03 04:05:32;;;;;;;4.85;2.67;;;15.30;99.90;;;;;;4976640;28;20031;-71
2021/06/03 04:08:02;;;;;;;5.53;2.70;;;15.30;99.90;;;;;;4969536;28;20042;-72
2021/06/03 04:10:33;;;;;;;4.70;2.47;;;15.30;99.90;;;;;;4987775;28;20034;-71
2021/06/03 04:12:58;;;;;;;4.55;2.72;;;15.20;99.90;;;;;;4990702;28;20098;-71
2021/06/03 04:15:27;;;;;;;4.07;2.30;;;15.30;99.90;;;;;;4983839;28;20122;-71
2021/06/03 04:17:52;;;;;;;4.10;2.40;;;15.30;99.90;;;;;;4974633;28;20034;-71
2021/06/03 04:20:24;;;;;;;6.22;2.65;;;15.30;99.90;;;;;;4974519;28;20667;-72
2021/06/03 04:22:52;;;;;;;6.35;2.45;;;15.30;99.90;;;;;;4974784;28;20030;-72
2021/06/03 04:25:20;;;;;;;4.63;2.55;;;15.30;99.90;;;;;;4975134;28;20038;-72
2021/06/03 04:27:46;;;;;;;4.22;2.50;;;15.30;99.90;;;;;;4985279;28;20069;-72
2021/06/03 04:30:14;;;;;;;4.65;2.38;;;15.40;99.90;;;;;;4975349;28;20105;-71
2021/06/03 04:32:42;;;;;;;4.93;2.50;;;15.40;99.90;;;;;;4992107;28;20041;-72
2021/06/03 04:35:08;;;;;;;4.63;2.58;;;15.50;99.90;;;;;;4994558;28;20037;-71
2021/06/03 04:37:38;;;;;;;4.10;2.25;;;15.50;99.90;;;;;;4980901;28;20038;-71
2021/06/03 04:40:05;;;;;;;4.05;2.50;;;15.50;99.90;;;;;;4989431;28;20041;-72
2021/06/03 04:42:31;;;;;;;4.57;2.40;;;15.60;99.90;;;;;;4988046;28;20023;-71
2021/06/03 04:44:57;;;;;;;4.43;2.20;;;15.60;99.90;;;;;;4996838;28;20157;-72
2021/06/03 04:47:27;;;;;;;3.95;2.50;;;15.70;99.90;;;;;;4974599;28;20396;-71
2021/06/03 04:49:55;;;;;;;3.60;2.20;;;15.80;99.90;;;;;;4975476;28;20060;-71
2021/06/03 04:52:28;;;;;;;3.97;2.35;;;15.80;99.90;;;;;;4974716;28;20527;-71
2021/06/03 04:55:05;;;;;;;3.80;2.20;;;15.90;99.90;;;;;;4975576;28;20173;-71
2021/06/03 04:57:31;;;;;;;4.55;2.17;;;16.00;99.90;;;;;;4984962;28;20621;-72
2021/06/03 04:59:58;;;;;;;5.47;2.83;;;16.10;99.90;;;;;;4974313;28;20027;-71
2021/06/03 05:02:26;;;;;;;7.13;2.50;;;16.10;99.90;;;;;;4975036;28;20109;-71
2021/06/03 05:04:52;;;;;;;4.35;2.72;;;16.20;99.90;;;;;;4985698;28;21925;-71
2021/06/03 05:07:20;;;;;;;3.95;2.42;;;16.30;99.90;;;;;;4994395;28;20030;-71
2021/06/03 05:09:47;;;;;;;4.00;2.58;;;16.40;99.90;;;;;;4985853;28;20022;-71
2021/06/03 05:12:15;;;;;;;4.85;3.13;;;16.50;99.90;;;;;;4974870;28;20031;-71
2021/06/03 05:14:48;;;;;;;7.32;3.08;;;16.60;99.90;;;;;;4974952;28;20037;-71
2021/06/03 05:17:16;;;;;;;5.43;3.20;;;16.70;99.90;;;;;;4974326;28;20034;-71
2021/06/03 05:19:41;;;;;;;5.28;3.13;;;16.70;99.90;;;;;;4984536;28;20027;-71
2021/06/03 05:22:09;;;;;;;4.95;3.30;;;16.80;99.90;;;;;;4977010;28;20042;-71
2021/06/03 05:24:35;;;;;;;4.88;3.17;;;16.90;99.90;;;;;;4973625;28;20591;-71
2021/06/03 05:27:01;;;;;;;5.43;3.83;;;17.00;99.90;;;;;;4984723;28;20554;-71
2021/06/03 05:29:27;;;;;;;6.60;3.40;;;17.00;99.90;;;;;;4968865;28;20042;-71
2021/06/03 05:31:55;;;;;;;4.40;3.30;;;17.10;99.90;;;;;;4975785;28;20065;-71
2021/06/03 05:34:20;;;;;;;4.70;3.30;;;17.20;99.90;;;;;;4978924;28;20897;-72
2021/06/03 05:36:46;;;;;;;5.53;3.28;;;17.20;99.90;;;;;;4993482;28;20027;-71
2021/06/03 05:39:14;;;;;;;5.22;3.30;;;17.30;99.90;;;;;;4989782;28;20034;-71
2021/06/03 05:41:39;;;;;;;5.15;3.35;;;17.40;99.90;;;;;;4977800;28;20026;-72
2021/06/03 05:44:07;;;;;;;6.15;3.08;;;17.40;99.90;;;;;;4988786;28;20475;-71
2021/06/03 05:46:32;;;;;;;4.90;3.20;;;17.50;99.90;;;;;;4988807;28;20030;-71
2021/06/03 05:49:01;;;;;;;4.53;2.78;;;17.50;99.90;;;;;;4978493;28;20041;-72
2021/06/03 05:51:27;;;;;;;4.80;3.10;;;17.50;99.90;;;;;;4977517;28;20054;-71
2021/06/03 05:53:55;;;;;;;4.70;3.13;;;17.60;99.90;;;;;;4993326;28;20030;-71
2021/06/03 05:56:22;;;;;;;5.07;3.20;;;17.70;99.90;;;;;;4988733;28;20031;-71
2021/06/03 05:58:50;;;;;;;4.95;3.00;;;17.70;99.90;;;;;;4977920;28;20059;-72
2021/06/03 06:01:15;;;;;;;5.95;3.00;;;17.70;99.90;;;;;;4979993;28;20333;-71
2021/06/03 06:03:49;;;;;;;6.38;3.20;;;17.80;99.90;;;;;;4998957;28;20097;-72
2021/06/03 06:08:45;;;;;;;5.30;3.17;;;17.90;99.90;;;;;;4977375;28;20038;-71
2021/06/03 06:11:11;;;;;;;4.55;3.05;;;18.00;99.90;;;;;;4976582;28;20044;-72
2021/06/03 06:13:36;;;;;;;6.43;3.25;;;18.00;99.90;;;;;;4987526;28;20356;-71
2021/06/03 06:16:02;;;;;;;4.75;3.20;;;18.10;99.90;;;;;;4992391;28;20030;-71
2021/06/03 06:18:31;;;;;;;4.45;3.00;;;18.20;99.90;;;;;;4977658;28;20034;-77
2021/06/03 06:20:59;;;;;;;5.78;3.38;;;18.30;99.90;;;;;;4996641;28;20036;-77
2021/06/03 06:23:25;;;;;;;5.63;3.50;;;18.30;99.90;;;;;;4983817;28;20042;-77
2021/06/03 06:25:50;;;;;;;5.75;3.55;;;18.40;99.90;;;;;;4979689;28;20722;-77
2021/06/03 06:28:16;;;;;;;5.95;3.67;;;18.50;99.90;;;;;;4976977;28;20499;-77
2021/06/03 06:30:45;;;;;;;4.93;3.53;;;18.50;99.90;;;;;;4979066;28;20038;-77
2021/06/03 06:33:14;;;;;;;6.03;3.78;;;18.50;99.90;;;;;;4977387;28;20031;-77
2021/06/03 06:35:40;;;;;;;5.78;4.30;;;18.60;99.90;;;;;;4986763;28;20044;-77
2021/06/03 06:38:05;;;;;;;5.47;3.95;;;18.60;99.90;;;;;;4977914;28;20030;-77
2021/06/03 06:40:36;;;;;;;6.55;4.40;;;18.60;99.90;;;;;;4988487;28;20482;-77
2021/06/03 06:43:01;;;;;;;6.60;4.18;;;18.70;99.90;;;;;;4970604;28;20030;-77
2021/06/03 06:45:32;;;;;;;6.35;4.40;;;18.70;99.90;;;;;;4978012;28;20100;-77
2021/06/03 06:47:58;;;;;;;5.40;4.10;;;18.70;99.90;;;;;;4977657;28;20636;-77
2021/06/03 06:50:29;;;;;;;6.28;4.05;;;18.80;99.90;;;;;;5007441;28;20034;-77
2021/06/03 06:52:57;;;;;;;6.80;5.00;;;18.90;99.90;;;;;;4996324;28;20029;-78
2021/06/03 06:55:25;;;;;;;5.97;4.07;;;18.90;99.90;;;;;;4987481;28;20038;-72
2021/06/03 06:57:54;;;;;;;6.85;4.30;;;19.00;99.90;;;;;;4989562;28;20018;-72
2021/06/03 07:00:21;;;;;;;6.10;4.30;;;19.00;99.90;;;;;;4992793;28;20591;-77
2021/06/03 07:02:49;;;;;;;5.50;4.15;;;19.10;99.90;;;;;;4986590;28;20046;-77
2021/06/03 07:05:15;;;;;;;5.20;4.20;;;19.20;99.90;;;;;;4991814;28;20030;-77
2021/06/03 07:07:40;;;;;;;6.45;3.97;;;19.30;99.90;;;;;;4995953;28;20026;-77
2021/06/03 07:10:07;;;;;;;5.40;3.80;;;19.40;99.90;;;;;;4991234;28;20102;-77
2021/06/03 07:12:33;;;;;;;5.93;3.92;;;19.50;99.90;;;;;;4996221;28;20045;-74
2021/06/03 07:15:00;;;;;;;6.25;4.13;;;19.60;99.90;;;;;;4995582;28;20236;-74
2021/06/03 07:17:26;;;;;;;6.38;4.22;;;19.70;99.90;;;;;;4991519;28;20030;-74
2021/06/03 07:19:51;;;;;;;6.13;4.00;;;19.80;99.90;;;;;;4994045;28;20087;-74
2021/06/03 07:22:17;;;;;;;5.72;4.18;;;19.80;99.90;;;;;;4992354;28;20058;-75
2021/06/03 07:24:44;;;;;;;5.60;4.00;;;19.90;99.90;;;;;;4985788;28;20022;-75
2021/06/03 07:27:10;;;;;;;6.68;4.25;;;20.00;99.90;;;;;;5003411;28;20323;-74
2021/06/03 07:29:39;;;;;;;6.75;4.20;;;20.10;99.90;;;;;;4979722;28;20478;-75
2021/06/03 07:32:07;;;;;;;6.05;4.10;;;20.30;99.90;;;;;;4994845;28;20080;-70
2021/06/03 07:34:33;;;;;;;7.60;4.40;;;20.30;99.90;;;;;;4990922;28;20022;-70
2021/06/03 07:36:58;;;;;;;6.68;5.25;;;20.40;99.90;;;;;;5003187;28;20026;-70
2021/06/03 07:39:28;;;;;;;7.93;5.07;;;20.60;99.90;;;;;;4997236;28;20021;-77
2021/06/03 07:41:53;;;;;;;6.82;4.57;;;20.90;99.90;;;;;;4993763;28;20033;-75
2021/06/03 07:44:19;;;;;;;6.13;4.10;;;21.10;99.90;;;;;;4988249;28;20901;-74
2021/06/03 07:46:45;;;;;;;7.15;3.90;;;21.30;99.90;;;;;;4983078;28;20066;-74
2021/06/03 07:49:13;;;;;;;6.40;4.00;;;21.60;99.90;;;;;;5007953;28;20029;-75
2021/06/03 07:51:41;;;;;;;5.20;3.30;;;21.70;99.90;;;;;;4995707;28;20095;-75
2021/06/03 07:54:09;;;;;;;5.55;3.45;;;22.00;99.90;;;;;;4992602;28;20041;-75
2021/06/03 07:56:35;;;;;;;6.05;3.33;;;22.30;99.90;;;;;;4986033;28;20125;-83
2021/06/03 07:59:02;;;;;;;5.93;3.38;;;22.40;94.10;;;;;;4988809;28;20023;-74
2021/06/03 08:01:27;;;;;;;5.13;3.28;;;22.60;93.60;;;;;;4993501;28;20161;-75
2021/06/03 08:03:58;;;;;;;12.52;11.02;;;22.70;94.80;;;;;;4990259;28;20421;-70
2021/06/03 08:06:25;;;;;;;11.93;9.55;;;23.00;97.20;;;;;;4989417;28;20038;-70
2021/06/03 08:08:54;;;;;;;7.03;4.13;;;23.20;97.10;;;;;;4989482;28;20076;-75
2021/06/03 08:11:21;;;;;;;6.70;4.18;;;23.40;92.70;;;;;;4989447;28;20038;-77
2021/06/03 08:13:47;;;;;;;4.88;3.47;;;23.50;92.30;;;;;;4995582;28;20098;-78
2021/06/03 08:16:15;;;;;;;6.45;3.20;;;23.70;85.00;;;;;;4989185;28;20027;-77
2021/06/03 08:18:41;;;;;;;4.75;3.00;;;23.80;91.00;;;;;;4996579;28;20025;-77
2021/06/03 08:21:09;;;;;;;5.32;3.03;;;23.80;88.00;;;;;;4989486;28;20034;-78
2021/06/03 08:23:35;;;;;;;5.05;3.20;;;23.90;84.00;;;;;;4990372;28;20034;-77
2021/06/03 08:26:00;;;;;;;5.00;2.92;;;24.10;79.00;;;;;;4987181;28;20138;-78
2021/06/03 08:28:26;;;;;;;5.65;3.30;;;24.20;80.80;;;;;;4986055;28;20030;-78
2021/06/03 08:30:56;;;;;;;5.75;3.40;;;24.20;73.60;;;;;;4987298;28;20126;-77
2021/06/03 08:33:22;;;;;;;4.95;3.03;;;24.30;74.20;;;;;;4987755;28;20170;-79
2021/06/03 08:35:50;;;;;;;5.72;3.50;;;24.40;75.10;;;;;;4992442;28;20015;-78
2021/06/03 08:38:21;;;;;;;7.18;3.30;;;24.30;73.70;;;;;;4990832;28;20054;-78
2021/06/03 08:40:48;;;;;;;6.90;3.80;;;24.40;72.00;;;;;;4986145;28;20064;-78
2021/06/03 08:43:14;;;;;;;6.18;3.67;;;24.40;73.20;;;;;;5007319;28;20029;-78
2021/06/03 08:45:42;;;;;;;5.22;3.15;;;24.30;71.90;;;;;;4988284;28;20053;-78
2021/06/03 08:48:08;;;;;;;6.78;4.40;;;24.40;76.20;;;;;;4995849;28;20019;-74
2021/06/03 08:50:36;;;;;;;6.50;4.18;;;24.60;75.20;;;;;;4991987;28;20049;-78
2021/06/03 08:53:04;;;;;;;6.72;3.90;;;24.50;74.30;;;;;;4989292;28;20084;-78
2021/06/03 08:58:18;;;;;;;5.35;3.20;;;24.60;78.50;;;;;;4994721;28;20041;-78
2021/06/03 09:00:44;;;;;;;5.45;2.95;;;24.80;85.90;;;;;;4990393;28;20026;-78
2021/06/03 09:03:10;;;;;;;6.40;2.90;;;24.80;83.00;;;;;;4989632;28;20108;-78
2021/06/03 09:05:35;;;;;;;6.55;3.30;;;24.90;74.80;;;;;;4989955;28;20464;-79
2021/06/03 09:08:26;;;;;;;4.40;2.83;;;25.00;74.80;;;;;;4992609;28;21893;-77
2021/06/03 09:10:54;;;;;;;5.82;3.00;;;25.00;79.00;;;;;;4988314;28;20046;-77
2021/06/03 09:13:40;;;;;;;5.54;2.96;;;24.80;76.00;;;;;;4647939;28;10001309;-75
2021/06/03 09:16:09;;;;;;;4.97;2.90;;;25.00;78.30;;;;;;4989073;28;20018;-76
2021/06/03 09:18:51;;;;;;;6.30;3.15;;;25.10;79.50;;;;;;4992690;28;20041;-77
2021/06/03 09:21:24;;;;;;;5.10;2.75;;;24.90;78.20;;;;;;4980174;28;20030;-77
2021/06/03 09:24:13;;;;;;;5.55;3.05;;;24.70;70.60;;;;;;4988447;28;20057;-76
2021/06/03 09:26:45;;;;;;;5.28;3.05;;;24.90;81.90;;;;;;4990986;28;20121;-77
2021/06/03 09:29:11;;;;;;;5.10;2.83;;;25.00;78.00;;;;;;5008090;28;20105;-77
2021/06/03 09:31:37;;;;;;;5.65;2.90;;;25.10;80.40;;;;;;4990719;28;20038;-76
2021/06/03 09:34:16;;;;;;;4.90;2.83;;;25.30;77.20;;;;;;4996177;28;20034;-76
2021/06/03 09:36:49;;;;;;;4.88;2.60;;;25.30;75.60;;;;;;4992817;28;20042;-75
2021/06/03 09:39:26;;;;;;;4.18;2.60;;;25.30;73.60;;;;;;4991138;28;20030;-77
2021/06/03 09:42:06;;;;;;;4.60;2.30;;;25.30;79.80;;;;;;4991547;28;20062;-79
2021/06/03 09:44:49;;;;;;;3.85;2.30;;;25.60;75.70;;;;;;4996666;28;20043;-78
2021/06/03 09:47:28;;;;;;;5.65;2.30;;;25.40;72.80;;;;;;4994654;28;20041;-77
2021/06/03 09:49:53;;;;;;;5.10;2.33;;;25.30;66.20;;;;;;4993946;28;20034;-70
2021/06/03 09:52:40;;;;;;;9.63;7.03;;;25.40;71.50;;;;;;4992040;28;20026;-72
2021/06/03 09:55:13;;;;;;;5.00;2.60;;;25.50;77.10;;;;;;4989429;28;20038;-77
2021/06/03 09:57:45;;;;;;;6.57;2.40;;;25.60;72.80;;;;;;4651112;28;10000329;-77
2021/06/03 10:00:12;;;;;;;4.50;2.05;;;25.60;72.70;;;;;;4988754;28;20022;-76
2021/06/03 10:02:38;;;;;;;4.72;2.10;;;25.60;72.40;;;;;;4990371;28;20042;-76
2021/06/03 10:05:22;;;;;;;4.80;2.40;;;25.70;71.60;;;;;;4995031;28;20023;-76
2021/06/03 10:08:01;;;;;;;4.38;2.30;;;25.50;69.10;;;;;;4972000;28;20031;-74
2021/06/03 10:10:28;;;;;;;4.30;2.55;;;25.40;65.70;;;;;;4993623;28;20026;-77
2021/06/03 10:12:53;;;;;;;4.70;2.78;;;25.20;67.50;;;;;;4985217;28;20037;-75
2021/06/03 10:15:25;;;;;;;4.15;2.40;;;25.40;72.20;;;;;;4993002;28;20604;-77
2021/06/03 10:18:00;;;;;;;4.28;2.55;;;25.40;68.10;;;;;;4987376;28;20089;-75
2021/06/03 10:20:34;;;;;;;4.45;2.72;;;25.60;71.00;;;;;;4997466;28;20487;-75
2021/06/03 10:22:59;;;;;;;5.93;2.30;;;25.70;69.60;;;;;;4997394;28;20022;-75
2021/06/03 10:25:26;;;;;;;4.80;2.45;;;25.70;71.70;;;;;;4990727;28;20045;-75
2021/06/03 10:27:56;;;;;;;3.80;2.38;;;25.80;67.90;;;;;;4992513;28;20491;-75
2021/06/03 10:30:29;;;;;;;5.72;2.55;;;25.80;72.10;;;;;;4990857;28;20033;-75
2021/06/03 10:32:56;;;;;;;5.55;3.00;;;25.90;67.80;;;;;;4997385;28;20049;-69
2021/06/03 10:35:26;;;;;;;5.63;2.83;;;26.00;69.60;;;;;;4983230;28;20053;-73
2021/06/03 10:37:52;;;;;;;5.43;2.80;;;26.10;65.90;;;;;;4997952;28;20150;-74
2021/06/03 10:40:29;;;;;;;4.45;2.58;;;26.10;69.90;;;;;;4992329;28;20110;-75
2021/06/03 10:42:55;;;;;;;4.68;2.78;;;26.20;68.70;;;;;;5008764;28;20026;-75
2021/06/03 10:45:21;;;;;;;4.82;2.80;;;26.10;69.50;;;;;;4990353;28;20085;-73
2021/06/03 10:47:47;;;;;;;4.20;2.90;;;26.30;71.50;;;;;;5005861;28;20022;-74
2021/06/03 10:50:42;;;;;;;5.10;2.88;;;26.40;69.00;;;;;;4967246;28;20689;-74
2021/06/03 10:53:15;;;;;;;4.90;3.20;;;26.60;71.50;;;;;;4987571;28;20046;-74
2021/06/03 10:55:52;;;;;;;5.65;2.95;;;26.50;69.30;;;;;;4993244;28;20026;-74
2021/06/03 10:58:19;;;;;;;5.88;2.95;;;26.70;67.90;;;;;;4992878;28;20019;-75
2021/06/03 11:00:50;;;;;;;4.80;3.10;;;26.80;71.00;;;;;;4998090;28;20110;-75
2021/06/03 11:03:23;;;;;;;;;;;26.80;68.80;;;;;;4999481;28;20084;-75
2021/06/03 11:06:01;;;;;;;5.30;3.08;;;26.90;63.90;;;;;;4988745;28;20012;-76
2021/06/03 11:08:39;;;;;;;4.85;3.38;;;26.80;63.20;;;;;;4988174;28;20348;-77
2021/06/03 11:11:14;;;;;;;7.10;3.35;;;26.60;59.40;;;;;;4982950;28;20654;-75
2021/06/03 11:13:45;;;;;;;5.68;3.42;;;26.70;67.60;;;;;;4989371;28;20132;-76
2021/06/03 11:16:16;;;;;;;6.20;3.60;;;27.00;64.20;;;;;;4988655;28;20233;-74
2021/06/03 11:18:48;;;;;;;4.45;3.15;;;27.00;66.20;;;;;;4993525;28;20022;-75
2021/06/03 11:24:11;;;;;;;6.00;2.92;;;27.10;65.90;;;;;;4986586;28;21578;-75
2021/06/03 11:26:48;;;;;;;5.47;3.30;;;27.20;65.70;;;;;;4989506;28;20097;-75
2021/06/03 11:29:14;;;;;;;4.70;3.15;;;27.20;65.00;;;;;;4988762;28;20038;-76
2021/06/03 11:31:59;;;;;;;4.80;3.20;;;27.30;64.80;;;;;;4986893;28;20023;-76
2021/06/03 11:34:30;;;;;;;6.47;3.65;;;27.30;67.50;;;;;;4989943;28;20027;-70
2021/06/03 11:37:01;;;;;;;7.93;3.30;;;27.50;63.90;;;;;;4995452;28;20030;-69
2021/06/03 11:39:32;;;;;;;6.72;3.60;;;27.40;62.20;;;;;;4990362;28;20145;-74
2021/06/03 11:42:17;;;;;;;5.47;3.67;;;27.30;66.00;;;;;;4990163;28;20034;-74
2021/06/03 11:45:02;;;;;;;5.25;3.30;;;27.10;63.10;;;;;;4988554;28;20053;-75
2021/06/03 11:47:48;;;;;;;4.78;3.20;;;27.10;64.10;;;;;;4990989;28;20408;-74
2021/06/03 11:50:16;;;;;;;5.95;3.40;;;27.20;64.40;;;;;;4964197;28;20046;-74
2021/06/03 11:53:00;;;;;;;5.55;3.10;;;27.40;69.60;;;;;;4988113;28;20103;-74
2021/06/03 11:55:30;;;;;;;5.63;3.40;;;27.60;64.80;;;;;;4989799;28;20030;-76
2021/06/03 11:58:17;;;;;;;4.93;3.30;;;27.70;63.00;;;;;;4992276;28;20495;-76
2021/06/03 12:00:59;;;;;;;7.22;3.25;;;27.80;64.00;;;;;;4992359;28;20031;-75
2021/06/03 12:03:27;;;;;;;5.72;3.60;;;27.70;66.10;;;;;;5007231;28;20479;-75
2021/06/03 12:05:55;;;;;;;5.47;3.50;;;27.80;66.10;;;;;;4996927;28;20069;-75
2021/06/03 12:08:52;;;;;;;5.47;3.50;;;28.10;67.90;;;;;;4989662;28;20093;-76
2021/06/03 12:11:25;;;;;;;5.43;2.92;;;28.30;66.70;;;;;;4978246;28;20038;-77
2021/06/03 12:14:08;;;;;;;6.03;3.10;;;28.40;66.60;;;;;;4994564;28;20033;-75
2021/06/03 12:16:43;;;;;;;5.32;3.17;;;28.40;62.80;;;;;;4995807;28;20022;-76
2021/06/03 12:19:10;;;;;;;4.60;3.00;;;28.30;60.90;;;;;;4989964;28;20668;-75
2021/06/03 12:21:35;;;;;;;5.30;3.30;;;28.10;59.90;;;;;;4991536;28;20045;-74
2021/06/03 12:24:01;;;;;;;6.28;3.00;;;28.10;63.60;;;;;;4986115;28;20026;-75
2021/06/03 12:26:29;;;;;;;4.93;3.13;;;28.00;63.80;;;;;;4991320;28;20029;-75
2021/06/03 12:28:57;;;;;;;5.68;3.30;;;28.00;64.60;;;;;;4990115;28;20049;-75
2021/06/03 12:31:29;;;;;;;4.60;3.28;;;28.30;67.00;;;;;;4996870;28;20042;-74
2021/06/03 12:33:59;;;;;;;5.15;3.20;;;28.20;63.80;;;;;;4988255;28;20058;-75
2021/06/03 12:36:28;;;;;;;6.40;3.20;;;28.30;64.20;;;;;;4989601;28;20049;-74
2021/06/03 12:38:56;;;;;;;6.18;4.00;;;28.50;69.00;;;;;;4993856;28;20026;-74
2021/06/03 12:41:40;;;;;;;7.50;4.22;;;28.40;63.60;;;;;;4990173;28;20038;-75
2021/06/03 12:44:14;;;;;;;4.78;2.92;;;28.50;63.10;;;;;;4990164;28;20034;-75
2021/06/03 12:46:45;;;;;;;4.80;3.13;;;28.60;62.50;;;;;;4989889;28;20049;-74
2021/06/03 12:49:14;;;;;;;5.40;3.40;;;28.20;61.20;;;;;;4971667;28;20041;-69
2021/06/03 12:52:06;;;;;;;9.65;6.50;;;28.20;63.40;;;;;;5001025;28;20124;-69
2021/06/03 12:54:39;;;;;;;4.45;3.30;;;28.50;68.30;;;;;;4988852;28;20092;-74
2021/06/03 12:57:12;;;;;;;4.60;3.08;;;28.40;61.80;;;;;;4988949;28;20673;-74
2021/06/03 12:59:38;;;;;;;4.65;3.22;;;28.50;66.20;;;;;;4995503;28;20101;-74
2021/06/03 13:02:08;;;;;;;7.63;5.32;;;28.40;63.50;;;;;;4989610;28;22210;-74
2021/06/03 13:04:50;;;;;;;6.57;3.92;;;28.40;64.50;;;;;;4987111;28;20046;-74
2021/06/03 13:07:25;;;;;;;4.68;3.20;;;28.10;59.90;;;;;;4990270;28;20068;-75